createdAt,value
2022-08-11T00:01:29.936Z,12.50
2022-08-11T00:04:05.130Z,9.15
2022-08-11T00:06:35.913Z,15.32
2022-08-11T00:09:06.396Z,13.75
2022-08-11T00:11:40.156Z,16.40
2022-08-11T00:14:37.327Z,17.05
2022-08-11T00:17:11.411Z,22.33
2022-08-11T00:20:14.171Z,19.30
2022-08-11T00:22:33.426Z,17.27
2022-08-11T00:25:22.220Z,15.25
2022-08-11T00:27:50.449Z,14.15
2022-08-11T00:30:17.887Z,18.70
2022-08-11T00:32:55.401Z,15.45
2022-08-11T00:35:51.588Z,15.07
2022-08-11T00:38:17.595Z,15.27
2022-08-11T00:41:11.657Z,9.50
2022-08-11T00:43:48.561Z,16.67
2022-08-11T00:46:26.036Z,21.58
2022-08-11T00:49:12.247Z,21.13
2022-08-11T00:52:04.909Z,14.63
2022-08-11T00:54:42.282Z,11.57
2022-08-11T00:57:37.573Z,15.18
2022-08-11T01:00:21.625Z,10.45
2022-08-11T01:03:13.582Z,13.25
2022-08-11T01:05:59.925Z,14.88
2022-08-11T01:09:09.808Z,12.73
2022-08-11T01:12:20.485Z,9.27
2022-08-11T01:15:07.644Z,13.13
2022-08-11T01:18:18.170Z,12.05
2022-08-11T01:21:00.080Z,13.32
2022-08-11T01:23:55.147Z,9.50
2022-08-11T01:26:57.072Z,11.30
2022-08-11T01:29:49.395Z,16.10
2022-08-11T01:32:40.916Z,14.43
2022-08-11T01:35:27.033Z,14.98
2022-08-11T01:38:12.725Z,19.35
2022-08-11T01:40:42.907Z,13.43
2022-08-11T01:43:37.161Z,28.90
2022-08-11T01:46:21.947Z,14.40
2022-08-11T01:50:06.392Z,12.00
2022-08-11T01:52:10.533Z,11.97
2022-08-11T01:54:46.690Z,12.57
2022-08-11T01:57:23.342Z,13.80
2022-08-11T02:02:44.123Z,17.38
2022-08-11T02:05:50.027Z,11.35
2022-08-11T02:08:33.440Z,17.98
2022-08-11T02:11:22.446Z,13.30
2022-08-11T02:14:13.709Z,16.02
2022-08-11T02:16:47.126Z,13.20
2022-08-11T02:19:36.386Z,12.77
2022-08-11T02:22:32.581Z,15.45
2022-08-11T02:25:11.477Z,13.10
2022-08-11T02:27:53.622Z,14.20
2022-08-11T02:30:26.019Z,12.25
2022-08-11T02:33:21.002Z,16.58
2022-08-11T02:36:12.816Z,14.10
2022-08-11T02:39:11.845Z,14.00
2022-08-11T02:42:32.892Z,14.20
2022-08-11T02:45:30.240Z,10.27
2022-08-11T02:48:39.838Z,11.20
2022-08-11T02:51:31.770Z,14.23
2022-08-11T02:54:26.744Z,11.43
2022-08-11T02:57:16.962Z,13.35
2022-08-11T03:00:08.108Z,12.82
2022-08-11T03:02:43.041Z,14.18
2022-08-11T03:05:12.345Z,11.57
2022-08-11T03:08:03.401Z,12.18
2022-08-11T03:11:09.800Z,10.20
2022-08-11T03:14:05.004Z,14.55
2022-08-11T03:16:47.239Z,14.10
2022-08-11T03:19:17.300Z,10.70
2022-08-11T03:22:12.135Z,9.95
2022-08-11T03:24:57.899Z,11.27
2022-08-11T03:27:40.615Z,14.15
2022-08-11T03:30:16.546Z,9.65
2022-08-11T03:33:17.819Z,9.63
2022-08-11T03:36:20.319Z,9.38
2022-08-11T03:39:09.490Z,10.73
2022-08-11T03:42:01.646Z,9.32
2022-08-11T03:44:42.911Z,11.02
2022-08-11T03:47:26.666Z,10.48
2022-08-11T03:50:25.353Z,11.15
2022-08-11T03:53:17.321Z,11.20
2022-08-11T03:56:03.939Z,14.65
2022-08-11T03:59:08.790Z,12.30
2022-08-11T04:01:51.216Z,11.25
2022-08-11T04:04:36.663Z,10.52
2022-08-11T04:09:54.394Z,10.95
2022-08-11T04:12:36.507Z,18.58
2022-08-11T04:15:50.478Z,15.88
2022-08-11T04:18:30.598Z,13.85
2022-08-11T04:21:25.329Z,17.35
2022-08-11T04:24:39.531Z,11.52
2022-08-11T04:27:53.740Z,13.05
2022-08-11T04:30:58.401Z,19.42
2022-08-11T04:33:52.146Z,11.23
2022-08-11T04:37:10.746Z,9.90
2022-08-11T04:40:01.046Z,11.02
2022-08-11T04:43:19.822Z,11.27
2022-08-11T04:46:31.406Z,16.42
2022-08-11T04:49:48.460Z,12.90
2022-08-11T04:53:07.885Z,12.13
2022-08-11T04:56:16.164Z,13.82
2022-08-11T04:59:15.804Z,9.20
2022-08-11T05:02:17.673Z,11.18
2022-08-11T05:05:25.290Z,13.68
2022-08-11T05:08:38.719Z,13.45
2022-08-11T05:11:24.462Z,13.70
2022-08-11T05:14:37.605Z,26.05
2022-08-11T05:17:29.970Z,15.93
2022-08-11T05:20:15.890Z,18.83
2022-08-11T05:23:08.436Z,19.73
2022-08-11T05:26:44.141Z,14.98
2022-08-11T05:29:19.398Z,18.50
2022-08-11T05:32:17.976Z,17.17
2022-08-11T05:34:54.431Z,13.07
2022-08-11T05:37:34.843Z,16.42
2022-08-11T05:40:34.289Z,17.88
2022-08-11T05:43:32.570Z,20.35
2022-08-11T05:46:20.583Z,14.65
2022-08-11T05:49:08.134Z,16.88
2022-08-11T05:52:05.406Z,13.93
2022-08-11T05:55:06.913Z,17.25
2022-08-11T05:57:48.962Z,18.30
2022-08-11T06:00:20.828Z,17.33
2022-08-11T06:02:57.480Z,17.05
2022-08-11T06:05:43.449Z,19.58
2022-08-11T06:08:13.628Z,17.00
2022-08-11T06:10:43.566Z,14.20
2022-08-11T06:13:14.982Z,16.70
2022-08-11T06:15:49.678Z,13.50
2022-08-11T06:18:18.086Z,18.70
2022-08-11T06:20:51.217Z,13.32
2022-08-11T06:23:23.196Z,13.25
2022-08-11T06:25:56.482Z,12.27
2022-08-11T06:28:45.265Z,12.73
2022-08-11T06:31:26.571Z,10.75
2022-08-11T06:34:06.272Z,11.68
2022-08-11T06:36:44.991Z,16.17
2022-08-11T06:39:39.455Z,13.52
2022-08-11T06:42:14.489Z,13.38
2022-08-11T06:45:01.925Z,8.20
2022-08-11T06:47:29.431Z,10.20
2022-08-11T06:50:18.029Z,17.27
2022-08-11T06:52:47.286Z,8.80
2022-08-11T06:55:57.979Z,7.53
2022-08-11T06:58:49.205Z,13.25
2022-08-11T07:01:27.977Z,11.07
2022-08-11T07:04:07.031Z,10.15
2022-08-11T07:07:17.631Z,13.60
2022-08-11T07:10:23.269Z,5.75
2022-08-11T07:13:45.088Z,11.98
2022-08-11T07:16:10.694Z,12.63
2022-08-11T07:19:00.782Z,9.75
2022-08-11T07:22:02.527Z,4.47
2022-08-11T07:24:59.400Z,7.22
2022-08-11T07:27:57.485Z,6.95
2022-08-11T07:30:25.915Z,3.88
2022-08-11T07:32:58.398Z,4.85
2022-08-11T07:35:48.780Z,11.52
2022-08-11T07:38:43.568Z,7.30
2022-08-11T07:41:16.438Z,4.60
2022-08-11T07:43:50.011Z,7.28
2022-08-11T07:46:37.073Z,11.73
2022-08-11T07:52:09.535Z,4.35
2022-08-11T07:54:38.278Z,2.60
2022-08-11T07:57:47.333Z,12.10
2022-08-11T08:00:34.344Z,8.93
2022-08-11T08:06:28.515Z,6.70
2022-08-11T08:09:15.405Z,6.38
2022-08-11T08:12:03.112Z,5.32
2022-08-11T08:14:50.558Z,4.20
2022-08-11T08:17:37.430Z,4.82
2022-08-11T08:20:07.631Z,4.00
2022-08-11T08:22:39.206Z,11.23
2022-08-11T08:25:08.778Z,7.93
2022-08-11T08:27:38.453Z,7.45
2022-08-11T08:30:25.884Z,8.05
2022-08-11T08:32:53.872Z,7.53
2022-08-11T08:35:21.882Z,5.10
2022-08-11T08:37:52.814Z,3.03
2022-08-11T08:40:20.049Z,6.50
2022-08-11T08:42:55.425Z,5.60
2022-08-11T08:45:24.915Z,6.07
2022-08-11T08:47:59.577Z,8.07
2022-08-11T08:50:52.047Z,3.80
2022-08-11T08:53:29.722Z,8.15
2022-08-11T08:56:00.753Z,10.70
2022-08-11T08:58:29.723Z,4.82
2022-08-11T09:00:58.623Z,7.18
2022-08-11T09:04:06.631Z,5.45
2022-08-11T09:07:11.590Z,6.63
2022-08-11T09:10:07.073Z,4.32
2022-08-11T09:12:38.908Z,6.68
2022-08-11T09:15:10.453Z,7.65
2022-08-11T09:17:46.084Z,5.03
2022-08-11T09:20:20.713Z,11.23
2022-08-11T09:26:17.228Z,8.00
2022-08-11T09:28:47.136Z,4.93
2022-08-11T09:31:16.077Z,5.72
2022-08-11T09:33:44.787Z,5.90
2022-08-11T09:36:32.034Z,14.38
2022-08-11T09:39:19.670Z,3.88
2022-08-11T09:42:00.758Z,4.50
2022-08-11T09:44:49.982Z,7.93
2022-08-11T09:47:28.180Z,7.18
2022-08-11T09:50:02.811Z,12.32
2022-08-11T09:52:38.140Z,10.30
2022-08-11T09:55:11.373Z,6.03
2022-08-11T09:58:05.580Z,5.78
2022-08-11T10:00:40.327Z,4.78
2022-08-11T10:03:30.548Z,5.18
2022-08-11T10:06:20.173Z,5.82
2022-08-11T10:09:01.045Z,5.32
2022-08-11T10:11:29.101Z,6.20
2022-08-11T10:14:33.428Z,4.95
2022-08-11T10:17:06.946Z,4.10
2022-08-11T10:19:37.259Z,4.53
2022-08-11T10:22:27.557Z,7.63
2022-08-11T10:25:15.607Z,3.40
2022-08-11T10:28:30.740Z,9.75
2022-08-11T10:31:06.839Z,5.13
2022-08-11T10:34:00.578Z,6.80
2022-08-11T10:36:34.465Z,7.57
2022-08-11T10:39:04.554Z,12.95
2022-08-11T10:42:06.613Z,6.28
2022-08-11T10:44:45.869Z,6.72
2022-08-11T10:47:33.388Z,9.50
2022-08-11T10:50:26.154Z,3.92
2022-08-11T10:53:12.788Z,3.33
2022-08-11T10:56:01.896Z,6.43
2022-08-11T10:58:48.535Z,4.93
2022-08-11T11:01:24.554Z,6.20
2022-08-11T11:03:54.808Z,11.60
2022-08-11T11:06:29.882Z,3.33
2022-08-11T11:09:24.286Z,4.13
2022-08-11T11:12:30.158Z,4.78
2022-08-11T11:15:17.475Z,4.63
2022-08-11T11:17:57.746Z,5.32
2022-08-11T11:20:40.749Z,5.03
2022-08-11T11:23:27.136Z,6.22
2022-08-11T11:26:27.298Z,6.55
2022-08-11T11:29:03.954Z,6.13
2022-08-11T11:31:34.670Z,10.93
2022-08-11T11:34:12.247Z,3.95
2022-08-11T11:36:57.720Z,4.82
2022-08-11T11:39:27.956Z,7.90
2022-08-11T11:41:57.517Z,4.28
2022-08-11T11:44:25.670Z,13.13
2022-08-11T11:46:53.177Z,5.50
2022-08-11T11:51:58.920Z,7.60
2022-08-11T11:54:30.203Z,8.43
2022-08-11T11:57:20.125Z,7.70
2022-08-11T12:00:08.928Z,6.28
2022-08-11T12:02:40.958Z,5.00
2022-08-11T12:05:10.449Z,9.85
2022-08-11T12:08:10.339Z,10.15
2022-08-11T12:10:43.699Z,9.25
2022-08-11T12:13:30.548Z,5.85
2022-08-11T12:16:34.807Z,4.57
2022-08-11T12:18:54.687Z,8.15
2022-08-11T12:21:23.136Z,6.80
2022-08-11T12:24:09.403Z,5.32
2022-08-11T12:27:15.039Z,5.47
2022-08-11T12:29:43.821Z,4.65
2022-08-11T12:32:12.027Z,5.13
2022-08-11T12:34:39.203Z,7.43
2022-08-11T12:37:13.249Z,3.78
2022-08-11T12:40:16.909Z,5.47
2022-08-11T12:43:21.204Z,4.93
2022-08-11T12:45:54.386Z,7.47
2022-08-11T12:49:00.493Z,3.35
2022-08-11T12:52:10.904Z,7.63
2022-08-11T12:55:07.511Z,8.02
2022-08-11T12:58:05.828Z,7.97
2022-08-11T13:00:52.414Z,6.88
2022-08-11T13:03:39.890Z,4.65
2022-08-11T13:06:08.132Z,6.10
2022-08-11T13:08:41.215Z,10.30
2022-08-11T13:11:54.542Z,3.50
2022-08-11T13:14:17.240Z,2.78
2022-08-11T13:17:04.162Z,4.63
2022-08-11T13:19:32.661Z,9.18
2022-08-11T13:22:01.193Z,4.88
2022-08-11T13:24:30.409Z,3.22
2022-08-11T13:26:58.548Z,3.95
2022-08-11T13:29:28.988Z,3.97
2022-08-11T13:32:01.876Z,4.28
2022-08-11T13:34:35.396Z,10.32
2022-08-11T13:37:06.093Z,9.63
2022-08-11T13:39:35.533Z,10.38
2022-08-11T13:42:04.565Z,4.40
2022-08-11T13:44:36.908Z,4.50
2022-08-11T13:47:07.152Z,8.45
2022-08-11T13:49:40.495Z,7.25
2022-08-11T13:52:16.509Z,5.60
2022-08-11T13:54:46.857Z,7.38
2022-08-11T13:58:08.755Z,10.88
2022-08-11T14:00:14.550Z,4.28
2022-08-11T14:02:57.233Z,6.55
2022-08-11T14:05:46.889Z,5.38
2022-08-11T14:08:38.188Z,2.53
2022-08-11T14:12:21.750Z,5.07
2022-08-11T14:14:21.492Z,4.45
2022-08-11T14:16:51.619Z,6.13
2022-08-11T14:19:22.894Z,4.35
2022-08-11T14:22:11.151Z,5.75
2022-08-11T14:24:49.532Z,7.13
2022-08-11T14:28:31.984Z,4.90
2022-08-11T14:30:26.487Z,4.88
2022-08-11T14:32:56.106Z,5.18
2022-08-11T14:35:25.896Z,7.90
2022-08-11T14:37:54.251Z,4.10
2022-08-11T14:40:40.127Z,5.55
2022-08-11T14:44:12.885Z,6.55
2022-08-11T14:49:05.531Z,4.20
2022-08-11T14:51:34.557Z,4.72
2022-08-11T14:54:20.756Z,5.90
2022-08-11T14:56:48.677Z,3.47
2022-08-11T14:59:16.109Z,7.00
2022-08-11T15:02:03.435Z,9.20
2022-08-11T15:04:35.931Z,4.65
2022-08-11T15:07:04.808Z,5.60
2022-08-11T15:12:35.224Z,9.32
2022-08-11T15:15:23.693Z,14.55
2022-08-11T15:17:57.563Z,6.38
2022-08-11T15:20:46.313Z,5.15
2022-08-11T15:23:33.097Z,6.03
2022-08-11T15:29:09.381Z,3.75
2022-08-11T15:31:44.325Z,8.43
2022-08-11T15:34:44.407Z,9.23
2022-08-11T15:37:27.194Z,5.10
2022-08-11T15:40:31.463Z,3.78
2022-08-11T15:43:33.660Z,6.00
2022-08-11T15:46:07.685Z,6.35
2022-08-11T15:49:02.883Z,5.40
2022-08-11T15:51:41.750Z,4.95
2022-08-11T15:54:16.321Z,5.45
2022-08-11T15:56:48.321Z,5.65
2022-08-11T15:59:41.930Z,6.15
2022-08-11T16:02:18.030Z,6.50
2022-08-11T16:04:47.794Z,6.43
2022-08-11T16:07:26.706Z,3.80
2022-08-11T16:10:02.761Z,5.13
2022-08-11T16:12:35.651Z,8.50
2022-08-11T16:15:26.330Z,8.25
2022-08-11T16:18:00.513Z,5.53
2022-08-11T16:20:30.066Z,8.50
2022-08-11T16:23:03.058Z,6.82
2022-08-11T16:27:02.836Z,19.02
2022-08-11T16:28:25.477Z,8.10
2022-08-11T16:30:55.004Z,9.70
2022-08-11T16:33:51.349Z,8.40
2022-08-11T16:36:33.517Z,5.68
2022-08-11T16:39:01.820Z,5.22
2022-08-11T16:41:50.994Z,11.60
2022-08-11T16:44:39.674Z,9.45
2022-08-11T16:47:53.878Z,9.85
2022-08-11T16:50:09.423Z,5.60
2022-08-11T16:52:37.221Z,6.28
2022-08-11T16:55:05.936Z,12.32
2022-08-11T16:57:54.567Z,8.68
2022-08-11T17:00:23.552Z,7.38
2022-08-11T17:03:11.612Z,16.85
2022-08-11T17:06:11.257Z,11.48
2022-08-11T17:09:08.539Z,5.15
2022-08-11T17:12:21.272Z,6.03
2022-08-11T17:14:58.298Z,8.30
2022-08-11T17:17:30.454Z,7.90
2022-08-11T17:20:38.569Z,2.85
2022-08-11T17:23:13.164Z,3.50
2022-08-11T17:26:04.049Z,5.43
2022-08-11T17:28:32.089Z,4.60
2022-08-11T17:31:22.684Z,8.52
2022-08-11T17:34:11.243Z,5.80
2022-08-11T17:36:44.532Z,9.43
2022-08-11T17:39:14.523Z,7.53
2022-08-11T17:42:01.839Z,3.00
2022-08-11T17:44:51.146Z,5.93
2022-08-11T17:47:38.528Z,4.20
2022-08-11T17:50:17.109Z,4.57
2022-08-11T17:53:05.427Z,6.43
2022-08-11T17:55:53.875Z,4.88
2022-08-11T17:58:41.718Z,9.20
2022-08-11T18:01:11.416Z,11.60
2022-08-11T18:03:40.923Z,8.65
2022-08-11T18:06:12.745Z,15.15
2022-08-11T18:09:04.512Z,7.15
2022-08-11T18:12:11.240Z,6.00
2022-08-11T18:15:02.802Z,9.30
2022-08-11T18:17:49.054Z,4.57
2022-08-11T18:20:35.858Z,6.72
2022-08-11T18:23:46.546Z,3.85
2022-08-11T18:26:32.314Z,9.43
2022-08-11T18:29:21.226Z,9.23
2022-08-11T18:32:09.607Z,15.35
2022-08-11T18:35:00.767Z,9.10
2022-08-11T18:37:51.291Z,8.48
2022-08-11T18:40:45.005Z,9.50
2022-08-11T18:43:33.714Z,11.05
2022-08-11T18:46:26.907Z,7.15
2022-08-11T18:49:21.102Z,9.23
2022-08-11T18:52:12.995Z,8.30
2022-08-11T18:55:01.914Z,15.73
2022-08-11T18:57:54.124Z,19.65
2022-08-11T19:00:45.237Z,16.70
2022-08-11T19:03:43.321Z,15.65
2022-08-11T19:06:41.051Z,12.40
2022-08-11T19:09:31.971Z,14.07
2022-08-11T19:12:20.300Z,19.23
2022-08-11T19:15:09.714Z,13.25
2022-08-11T19:18:00.324Z,18.50
2022-08-11T19:20:49.834Z,13.48
2022-08-11T19:23:39.704Z,17.30
2022-08-11T19:26:28.023Z,17.67
2022-08-11T19:30:07.091Z,20.65
2022-08-11T19:32:24.024Z,22.23
2022-08-11T19:35:11.177Z,9.98
2022-08-11T19:37:59.733Z,9.32
2022-08-11T19:40:47.692Z,8.80
2022-08-11T19:43:37.133Z,8.00
2022-08-11T19:46:27.129Z,8.70
2022-08-11T19:49:15.867Z,14.70
2022-08-11T19:52:03.548Z,9.02
2022-08-11T19:54:52.919Z,12.63
2022-08-11T19:57:42.462Z,15.18
2022-08-11T20:00:34.138Z,10.35
2022-08-11T20:03:22.556Z,16.73
2022-08-11T20:06:09.621Z,15.98
2022-08-11T20:08:59.262Z,14.25
2022-08-11T20:11:50.455Z,10.95
2022-08-11T20:14:40.163Z,13.73
2022-08-11T20:17:28.290Z,24.00
2022-08-11T20:20:17.161Z,16.08
2022-08-11T20:23:05.333Z,16.63
2022-08-11T20:25:55.801Z,21.00
2022-08-11T20:28:51.595Z,14.48
2022-08-11T20:31:41.760Z,18.73
2022-08-11T20:34:28.280Z,14.57
2022-08-11T20:37:15.453Z,22.10
2022-08-11T20:40:03.658Z,19.80
2022-08-11T20:42:52.492Z,18.52
2022-08-11T20:48:49.488Z,29.83
2022-08-11T20:51:38.806Z,23.88
2022-08-11T20:54:38.423Z,16.27
2022-08-11T20:57:54.572Z,20.20
2022-08-11T21:00:41.493Z,21.20
2022-08-11T21:06:37.531Z,13.85
2022-08-11T21:09:58.866Z,18.67
2022-08-11T21:12:35.779Z,15.85
2022-08-11T21:15:47.514Z,14.65
2022-08-11T21:18:35.353Z,11.73
2022-08-11T21:21:25.717Z,8.75
2022-08-11T21:24:13.244Z,18.88
2022-08-11T21:27:06.697Z,9.48
2022-08-11T21:29:55.111Z,14.98
2022-08-11T21:32:43.356Z,9.32
2022-08-11T21:35:30.859Z,9.23
2022-08-11T21:38:17.463Z,12.60
2022-08-11T21:41:05.891Z,9.73
2022-08-11T21:43:53.536Z,4.50
2022-08-11T21:46:41.306Z,8.38
2022-08-11T21:49:28.942Z,8.07
2022-08-11T21:52:15.355Z,7.22
2022-08-11T21:55:02.435Z,5.70
2022-08-11T21:57:50.699Z,7.00
2022-08-11T22:00:37.104Z,10.60
2022-08-11T22:03:24.615Z,8.73
2022-08-11T22:06:12.718Z,8.45
2022-08-11T22:08:58.670Z,5.28
2022-08-11T22:11:44.684Z,5.25
2022-08-11T22:14:32.511Z,4.93
2022-08-11T22:17:20.553Z,6.78
2022-08-11T22:20:08.022Z,12.27
2022-08-11T22:22:56.240Z,11.77
2022-08-11T22:25:53.772Z,6.65
2022-08-11T22:28:41.711Z,6.43
2022-08-11T22:31:32.363Z,6.95
2022-08-11T22:34:18.627Z,6.53
2022-08-11T22:37:07.297Z,7.55
2022-08-11T22:40:00.740Z,6.00
2022-08-11T22:42:53.465Z,9.73
2022-08-11T22:45:40.068Z,5.38
2022-08-11T22:48:28.528Z,5.90
2022-08-11T22:51:14.225Z,5.95
2022-08-11T22:54:01.567Z,5.97
2022-08-11T22:56:49.584Z,7.30
2022-08-11T22:59:38.712Z,5.85
2022-08-11T23:02:25.999Z,5.65
2022-08-11T23:05:13.955Z,9.60
2022-08-11T23:08:00.620Z,7.60
2022-08-11T23:10:47.761Z,5.72
2022-08-11T23:16:21.329Z,5.72
2022-08-11T23:19:08.174Z,8.82
2022-08-11T23:21:55.134Z,8.32
2022-08-11T23:24:43.224Z,9.23
2022-08-11T23:27:30.873Z,7.38
2022-08-11T23:30:19.226Z,6.57
2022-08-11T23:33:10.646Z,5.28
2022-08-11T23:36:03.561Z,5.00
2022-08-11T23:38:52.342Z,8.55
2022-08-11T23:41:39.235Z,7.43
2022-08-11T23:44:26.993Z,7.07
2022-08-11T23:47:14.920Z,5.72
2022-08-11T23:50:01.617Z,8.77
2022-08-11T23:52:49.030Z,10.48
2022-08-11T23:55:40.656Z,10.38
2022-08-11T23:58:27.280Z,8.40
